createdAt,value
2017-11-22T00:01:17.392Z,96.60
2017-11-22T00:03:45.454Z,96.60
2017-11-22T00:06:14.275Z,96.60
2017-11-22T00:08:43.275Z,96.50
2017-11-22T00:11:12.709Z,96.30
2017-11-22T00:13:40.790Z,96.30
2017-11-22T00:16:09.119Z,96.30
2017-11-22T00:18:37.173Z,96.30
2017-11-22T00:21:05.934Z,96.50
2017-11-22T00:23:34.831Z,96.60
2017-11-22T00:26:03.519Z,96.60
2017-11-22T00:28:31.581Z,96.50
2017-11-22T00:30:59.773Z,96.50
2017-11-22T00:33:27.859Z,96.50
2017-11-22T00:35:56.529Z,96.60
2017-11-22T00:38:25.081Z,96.50
2017-11-22T00:40:53.877Z,96.40
2017-11-22T00:43:22.487Z,96.40
2017-11-22T00:45:50.672Z,96.40
2017-11-22T00:48:18.753Z,96.20
2017-11-22T00:50:46.810Z,96.10
2017-11-22T00:53:15.016Z,96.30
2017-11-22T00:55:43.468Z,96.30
2017-11-22T00:58:12.133Z,96.30
2017-11-22T01:00:40.333Z,96.10
2017-11-22T01:03:08.398Z,96.10
2017-11-22T01:05:36.474Z,96.10
2017-11-22T01:08:05.187Z,95.90
2017-11-22T01:10:33.951Z,96.10
2017-11-22T01:13:02.018Z,96.20
2017-11-22T01:15:30.204Z,96.10
2017-11-22T01:17:58.415Z,95.90
2017-11-22T01:20:26.484Z,95.70
2017-11-22T01:22:55.033Z,95.80
2017-11-22T01:25:23.607Z,95.80
2017-11-22T01:27:52.297Z,95.80
2017-11-22T01:30:21.299Z,95.80
2017-11-22T01:32:49.384Z,95.80
2017-11-22T01:35:17.506Z,95.80
2017-11-22T01:37:47.033Z,95.30
2017-11-22T01:40:15.798Z,95.20
2017-11-22T01:42:45.240Z,95.00
2017-11-22T01:45:14.226Z,95.00
2017-11-22T01:47:42.417Z,94.90
2017-11-22T01:50:10.530Z,95.10
2017-11-22T01:52:38.868Z,94.90
2017-11-22T01:55:07.392Z,94.80
2017-11-22T01:57:35.457Z,94.60
2017-11-22T02:00:04.287Z,94.40
2017-11-22T02:02:33.108Z,94.40
2017-11-22T02:05:01.192Z,94.40
2017-11-22T02:07:29.522Z,94.20
2017-11-22T02:09:58.318Z,94.50
2017-11-22T02:12:27.640Z,94.20
2017-11-22T02:14:56.543Z,94.20
2017-11-22T02:17:24.620Z,94.10
2017-11-22T02:19:52.845Z,94.00
2017-11-22T02:22:22.395Z,94.00
2017-11-22T02:24:50.528Z,93.90
2017-11-22T02:27:19.376Z,93.70
2017-11-22T02:29:48.148Z,93.70
2017-11-22T02:32:16.353Z,93.80
2017-11-22T02:34:44.425Z,93.70
2017-11-22T02:37:12.718Z,93.70
2017-11-22T02:39:40.857Z,93.60
2017-11-22T02:42:08.965Z,93.60
2017-11-22T02:44:37.198Z,93.50
2017-11-22T02:47:06.311Z,93.50
2017-11-22T02:49:34.899Z,93.40
2017-11-22T02:52:03.627Z,93.40
2017-11-22T02:54:32.468Z,93.00
2017-11-22T02:57:00.654Z,92.80
2017-11-22T02:59:28.859Z,92.60
2017-11-22T03:01:57.733Z,92.50
2017-11-22T03:04:25.832Z,92.50
2017-11-22T03:06:54.027Z,92.50
2017-11-22T03:09:22.880Z,92.40
2017-11-22T03:11:50.941Z,92.40
2017-11-22T03:14:19.539Z,92.40
2017-11-22T03:16:48.102Z,92.30
2017-11-22T03:19:16.180Z,92.10
2017-11-22T03:21:44.524Z,92.20
2017-11-22T03:24:13.340Z,92.10
2017-11-22T03:26:41.869Z,92.20
2017-11-22T03:29:11.586Z,92.60
2017-11-22T03:31:40.397Z,91.80
2017-11-22T03:34:08.829Z,91.80
2017-11-22T03:36:37.299Z,91.10
2017-11-22T03:39:06.126Z,88.50
2017-11-22T03:41:35.473Z,86.40
2017-11-22T03:44:04.264Z,87.00
2017-11-22T03:46:32.358Z,88.30
2017-11-22T03:49:01.031Z,85.40
2017-11-22T03:51:35.047Z,85.20
2017-11-22T03:54:03.183Z,86.50
2017-11-22T03:56:32.619Z,89.00
2017-11-22T03:59:01.567Z,89.00
2017-11-22T04:01:31.003Z,89.30
2017-11-22T04:03:59.810Z,89.30
2017-11-22T04:06:28.008Z,89.00
2017-11-22T04:08:56.091Z,89.40
2017-11-22T04:11:24.858Z,88.60
2017-11-22T04:13:53.506Z,87.90
2017-11-22T04:16:22.108Z,87.40
2017-11-22T04:18:50.813Z,87.30
2017-11-22T04:21:19.025Z,87.30
2017-11-22T04:23:47.261Z,88.20
2017-11-22T04:26:15.849Z,88.40
2017-11-22T04:28:44.725Z,88.30
2017-11-22T04:31:12.793Z,88.30
2017-11-22T04:33:41.495Z,88.50
2017-11-22T04:36:09.695Z,86.90
2017-11-22T04:38:37.785Z,85.50
2017-11-22T04:41:05.864Z,85.80
2017-11-22T04:43:34.529Z,86.90
2017-11-22T04:46:03.174Z,88.50
2017-11-22T04:48:31.980Z,88.50
2017-11-22T04:51:00.202Z,89.00
2017-11-22T04:53:28.302Z,89.00
2017-11-22T04:55:57.631Z,90.00
2017-11-22T04:58:26.628Z,90.00
2017-11-22T05:00:55.229Z,90.40
2017-11-22T05:03:24.614Z,90.70
2017-11-22T05:05:52.848Z,90.70
2017-11-22T05:08:21.691Z,91.00
2017-11-22T05:10:49.898Z,91.00
2017-11-22T05:13:18.760Z,91.20
2017-11-22T05:15:47.643Z,91.50
2017-11-22T05:18:16.218Z,91.80
2017-11-22T05:20:44.406Z,92.20
2017-11-22T05:23:12.503Z,92.30
2017-11-22T05:25:40.723Z,92.40
2017-11-22T05:28:08.967Z,92.70
2017-11-22T05:33:11.852Z,92.60
2017-11-22T05:35:40.036Z,92.60
2017-11-22T05:38:08.138Z,92.80
2017-11-22T05:40:37.100Z,92.90
2017-11-22T05:43:05.194Z,92.90
2017-11-22T05:45:33.313Z,93.20
2017-11-22T05:48:01.543Z,93.00
2017-11-22T05:50:29.665Z,92.90
2017-11-22T05:52:57.814Z,92.50
2017-11-22T05:55:26.861Z,92.20
2017-11-22T05:57:54.966Z,92.20
2017-11-22T06:00:23.268Z,91.70
2017-11-22T06:02:52.512Z,91.80
2017-11-22T06:05:21.114Z,91.80
2017-11-22T06:07:55.422Z,91.80
2017-11-22T06:10:25.679Z,91.80
2017-11-22T06:12:54.545Z,91.70
2017-11-22T06:15:22.743Z,91.70
2017-11-22T06:17:52.291Z,91.00
2017-11-22T06:20:21.194Z,91.00
2017-11-22T06:22:49.463Z,91.00
2017-11-22T06:25:17.559Z,91.20
2017-11-22T06:27:45.780Z,90.90
2017-11-22T06:30:20.461Z,91.10
2017-11-22T06:32:48.951Z,91.10
2017-11-22T06:35:18.551Z,90.80
2017-11-22T06:37:46.790Z,90.80
2017-11-22T06:40:14.902Z,90.70
2017-11-22T06:42:43.032Z,90.60
2017-11-22T06:45:12.780Z,90.60
2017-11-22T06:47:41.480Z,90.60
2017-11-22T06:50:09.984Z,90.50
2017-11-22T06:52:38.927Z,90.70
2017-11-22T06:55:07.028Z,89.30
2017-11-22T06:57:35.125Z,89.70
2017-11-22T07:00:04.185Z,89.50
2017-11-22T07:02:38.724Z,89.90
2017-11-22T07:05:07.603Z,88.90
2017-11-22T07:07:36.297Z,88.90
2017-11-22T07:10:04.410Z,88.90
2017-11-22T07:12:33.379Z,87.30
2017-11-22T07:15:02.453Z,87.20
2017-11-22T07:17:30.530Z,86.80
2017-11-22T07:19:58.804Z,87.10
2017-11-22T07:22:27.092Z,88.00
2017-11-22T07:24:55.372Z,88.30
2017-11-22T07:27:24.368Z,87.40
2017-11-22T07:29:52.598Z,87.40
2017-11-22T07:32:21.344Z,88.10
2017-11-22T07:34:50.912Z,86.50
2017-11-22T07:37:25.061Z,86.60
2017-11-22T07:39:53.165Z,84.70
2017-11-22T07:42:22.002Z,84.60
2017-11-22T07:44:50.103Z,84.60
2017-11-22T07:47:20.222Z,84.00
2017-11-22T07:49:48.320Z,83.90
2017-11-22T07:52:22.217Z,84.60
2017-11-22T07:54:50.304Z,85.40
2017-11-22T07:57:24.965Z,83.90
2017-11-22T07:59:53.047Z,83.90
2017-11-22T08:02:21.131Z,83.00
2017-11-22T08:04:49.322Z,83.10
2017-11-22T08:07:17.408Z,82.90
2017-11-22T08:09:45.503Z,83.50
2017-11-22T08:12:14.452Z,81.80
2017-11-22T08:14:42.548Z,81.80
2017-11-22T08:17:10.647Z,82.70
2017-11-22T08:19:40.114Z,81.00
2017-11-22T08:22:08.183Z,81.00
2017-11-22T08:24:36.281Z,82.30
2017-11-22T08:27:04.490Z,79.70
2017-11-22T08:29:33.327Z,80.40
2017-11-22T08:32:01.704Z,80.30
2017-11-22T08:34:30.083Z,81.30
2017-11-22T08:36:58.362Z,81.80
2017-11-22T08:39:26.629Z,80.40
2017-11-22T08:41:54.850Z,79.80
2017-11-22T08:44:23.679Z,79.50
2017-11-22T08:46:51.773Z,79.10
2017-11-22T08:49:20.161Z,78.20
2017-11-22T08:51:48.438Z,78.90
2017-11-22T08:54:22.376Z,79.50
2017-11-22T08:56:56.460Z,81.10
2017-11-22T08:59:24.742Z,81.50
2017-11-22T09:01:53.530Z,79.80
2017-11-22T09:04:22.386Z,78.10
2017-11-22T09:06:53.927Z,78.90
2017-11-22T09:09:23.360Z,76.80
2017-11-22T09:11:54.658Z,76.70
2017-11-22T09:14:22.747Z,77.10
2017-11-22T09:16:51.698Z,76.40
2017-11-22T09:19:20.570Z,76.40
2017-11-22T09:21:49.430Z,76.90
2017-11-22T09:24:19.410Z,76.10
2017-11-22T09:26:48.098Z,76.00
2017-11-22T09:29:16.189Z,76.20
2017-11-22T09:31:50.616Z,75.80
2017-11-22T09:34:25.590Z,75.10
2017-11-22T09:36:54.184Z,75.10
2017-11-22T09:39:22.971Z,75.80
2017-11-22T09:41:51.055Z,75.10
2017-11-22T09:44:19.268Z,75.10
2017-11-22T09:46:47.333Z,75.80
2017-11-22T09:49:16.134Z,76.20
2017-11-22T09:51:44.796Z,75.70
2017-11-22T09:54:13.359Z,77.20
2017-11-22T09:56:41.936Z,75.60
2017-11-22T09:59:10.139Z,74.60
2017-11-22T10:01:38.227Z,74.10
2017-11-22T10:04:06.303Z,75.60
2017-11-22T10:06:35.092Z,74.30
2017-11-22T10:09:04.051Z,74.40
2017-11-22T10:11:32.116Z,73.60
2017-11-22T10:14:00.302Z,73.90
2017-11-22T10:16:28.384Z,75.30
2017-11-22T10:18:56.598Z,74.40
2017-11-22T10:21:28.797Z,74.30
2017-11-22T10:24:05.408Z,74.10
2017-11-22T10:26:34.484Z,75.00
2017-11-22T10:29:08.359Z,74.20
2017-11-22T10:31:47.171Z,74.80
2017-11-22T10:34:16.781Z,76.30
2017-11-22T10:36:46.318Z,80.50
2017-11-22T10:39:15.210Z,80.50
2017-11-22T10:41:43.912Z,86.90
2017-11-22T10:44:11.998Z,87.60
2017-11-22T10:46:40.199Z,87.70
2017-11-22T10:49:08.282Z,87.60
2017-11-22T10:51:36.375Z,87.70
2017-11-22T10:54:05.336Z,90.00
2017-11-22T10:56:33.438Z,90.00
2017-11-22T10:59:02.270Z,90.60
2017-11-22T11:01:30.475Z,90.60
2017-11-22T11:03:58.565Z,90.70
2017-11-22T11:06:27.424Z,90.30
2017-11-22T11:08:56.113Z,90.30
2017-11-22T11:11:24.256Z,89.70
2017-11-22T11:13:52.361Z,90.10
2017-11-22T11:16:21.236Z,89.10
2017-11-22T11:18:49.322Z,88.60
2017-11-22T11:21:17.424Z,88.80
2017-11-22T11:23:45.643Z,90.30
2017-11-22T11:26:13.747Z,90.10
2017-11-22T11:28:42.756Z,90.00
2017-11-22T11:31:10.998Z,90.70
2017-11-22T11:33:39.088Z,90.80
2017-11-22T11:36:19.553Z,91.60
2017-11-22T11:38:47.882Z,92.10
2017-11-22T11:41:16.812Z,92.00
2017-11-22T11:43:45.582Z,92.00
2017-11-22T11:46:14.405Z,92.60
2017-11-22T11:48:42.528Z,92.20
2017-11-22T11:51:11.512Z,92.10
2017-11-22T11:53:40.986Z,92.60
2017-11-22T11:56:09.584Z,92.60
2017-11-22T11:58:38.436Z,92.60
2017-11-22T12:01:07.438Z,93.00
2017-11-22T12:03:35.543Z,93.30
2017-11-22T12:06:04.421Z,93.20
2017-11-22T12:08:32.511Z,92.90
2017-11-22T12:11:16.025Z,92.70
2017-11-22T12:13:45.328Z,92.80
2017-11-22T12:16:14.114Z,92.80
2017-11-22T12:18:42.336Z,92.70
2017-11-22T12:21:14.118Z,93.60
2017-11-22T12:23:42.236Z,93.60
2017-11-22T12:26:10.327Z,93.50
2017-11-22T12:28:38.426Z,93.10
2017-11-22T12:31:07.249Z,93.00
2017-11-22T12:33:35.639Z,93.00
2017-11-22T12:36:03.714Z,93.00
2017-11-22T12:38:31.834Z,92.90
2017-11-22T12:41:00.783Z,93.10
2017-11-22T12:43:28.878Z,93.10
2017-11-22T12:45:56.968Z,93.10
2017-11-22T12:48:25.794Z,93.50
2017-11-22T12:50:53.898Z,93.50
2017-11-22T12:53:21.968Z,93.20
2017-11-22T12:55:50.082Z,93.20
2017-11-22T12:58:18.909Z,93.00
2017-11-22T13:00:47.039Z,93.00
2017-11-22T13:03:15.135Z,93.80
2017-11-22T13:05:43.971Z,94.10
2017-11-22T13:08:12.200Z,94.10
2017-11-22T13:10:45.882Z,94.40
2017-11-22T13:13:14.707Z,94.10
2017-11-22T13:15:42.832Z,94.10
2017-11-22T13:18:10.922Z,93.80
2017-11-22T13:20:39.018Z,93.60
2017-11-22T13:23:07.894Z,94.20
2017-11-22T13:25:36.761Z,94.00
2017-11-22T13:28:04.887Z,94.00
2017-11-22T13:30:33.042Z,94.10
2017-11-22T13:33:02.058Z,94.50
2017-11-22T13:35:30.387Z,94.50
2017-11-22T13:37:58.662Z,94.70
2017-11-22T13:40:27.087Z,94.40
2017-11-22T13:42:55.434Z,94.10
2017-11-22T13:45:24.486Z,94.10
2017-11-22T13:47:52.804Z,94.20
2017-11-22T13:50:20.907Z,94.10
2017-11-22T13:52:49.174Z,94.10
2017-11-22T13:55:18.607Z,94.20
2017-11-22T13:57:47.311Z,94.20
2017-11-22T14:00:16.332Z,94.30
2017-11-22T14:02:44.530Z,94.50
2017-11-22T14:05:12.720Z,94.70
2017-11-22T14:07:41.691Z,95.10
2017-11-22T14:10:10.554Z,95.00
2017-11-22T14:12:39.431Z,95.20
2017-11-22T14:15:08.080Z,95.20
2017-11-22T14:17:37.334Z,95.40
2017-11-22T14:20:05.430Z,95.40
2017-11-22T14:22:33.655Z,95.30
2017-11-22T14:25:02.016Z,95.30
2017-11-22T14:27:30.969Z,95.50
2017-11-22T14:29:59.942Z,95.50
2017-11-22T14:32:29.043Z,95.50
2017-11-22T14:34:58.032Z,95.60
2017-11-22T14:37:26.171Z,95.70
2017-11-22T14:39:55.217Z,96.00
2017-11-22T14:42:23.463Z,96.00
2017-11-22T14:44:52.186Z,95.80
2017-11-22T14:47:20.456Z,95.80
2017-11-22T14:49:48.601Z,95.90
2017-11-22T14:52:16.835Z,95.70
2017-11-22T14:54:45.086Z,95.60
2017-11-22T14:57:13.852Z,95.50
2017-11-22T14:59:42.526Z,95.60
2017-11-22T15:02:11.547Z,95.50
2017-11-22T15:04:39.817Z,95.50
2017-11-22T15:07:08.067Z,95.50
2017-11-22T15:09:37.263Z,95.60
2017-11-22T15:12:06.322Z,95.70
2017-11-22T15:14:35.177Z,95.60
2017-11-22T15:17:04.272Z,95.80
2017-11-22T15:19:32.417Z,95.90
2017-11-22T15:22:01.408Z,96.00
2017-11-22T15:24:30.502Z,96.00
2017-11-22T15:27:00.159Z,95.90
2017-11-22T15:29:28.611Z,95.90
2017-11-22T15:31:57.370Z,95.90
2017-11-22T15:34:25.545Z,95.90
2017-11-22T15:36:53.861Z,95.90
2017-11-22T15:39:22.058Z,96.00
2017-11-22T15:41:50.130Z,95.90
2017-11-22T15:44:18.712Z,95.90
2017-11-22T15:46:47.970Z,96.00
2017-11-22T15:49:16.790Z,95.80
2017-11-22T15:51:44.879Z,95.90
2017-11-22T15:54:13.106Z,95.70
2017-11-22T15:56:41.951Z,95.60
2017-11-22T15:59:10.125Z,95.60
2017-11-22T16:01:38.822Z,95.60
2017-11-22T16:04:07.631Z,95.60
2017-11-22T16:06:37.126Z,95.60
2017-11-22T16:09:05.596Z,95.60
2017-11-22T16:11:33.686Z,95.60
2017-11-22T16:14:02.243Z,95.70
2017-11-22T16:16:31.037Z,95.80
2017-11-22T16:18:59.609Z,96.10
2017-11-22T16:21:28.401Z,96.50
2017-11-22T16:23:56.601Z,97.00
2017-11-22T16:26:24.674Z,97.20
2017-11-22T16:28:52.759Z,97.20
2017-11-22T16:31:21.034Z,97.30
2017-11-22T16:33:49.311Z,97.70
2017-11-22T16:36:18.026Z,97.70
2017-11-22T16:38:46.977Z,97.30
2017-11-22T16:41:15.084Z,97.30
2017-11-22T16:43:43.165Z,97.00
2017-11-22T16:46:12.712Z,96.90
2017-11-22T16:48:41.759Z,97.30
2017-11-22T16:51:11.051Z,97.60
2017-11-22T16:53:39.290Z,97.60
2017-11-22T16:56:07.378Z,97.60
2017-11-22T16:58:36.056Z,97.50
2017-11-22T17:01:05.002Z,97.10
2017-11-22T17:03:34.236Z,97.60
2017-11-22T17:06:02.390Z,97.60
2017-11-22T17:08:31.325Z,97.30
2017-11-22T17:10:59.446Z,97.30
2017-11-22T17:13:28.286Z,97.60
2017-11-22T17:15:57.276Z,97.60
2017-11-22T17:18:25.378Z,97.70
2017-11-22T17:20:54.095Z,97.60
2017-11-22T17:23:23.704Z,97.50
2017-11-22T17:25:52.545Z,97.80
2017-11-22T17:28:20.666Z,97.80
2017-11-22T17:30:50.376Z,98.10
2017-11-22T17:33:19.722Z,98.20
2017-11-22T17:35:48.419Z,98.10
2017-11-22T17:38:17.104Z,98.30
2017-11-22T17:40:45.215Z,98.30
2017-11-22T17:43:13.363Z,98.10
2017-11-22T17:45:41.587Z,98.50
2017-11-22T17:48:11.032Z,98.20
2017-11-22T17:50:39.911Z,98.20
2017-11-22T17:53:08.713Z,98.00
2017-11-22T17:55:36.835Z,97.80
2017-11-22T17:58:05.735Z,97.70
2017-11-22T18:00:34.740Z,97.90
2017-11-22T18:03:04.194Z,97.80
2017-11-22T18:05:33.687Z,97.80
2017-11-22T18:08:02.391Z,97.80
2017-11-22T18:10:30.515Z,97.80
2017-11-22T18:12:59.369Z,97.60
2017-11-22T18:15:28.277Z,97.60
2017-11-22T18:17:56.365Z,97.50
2017-11-22T18:20:25.995Z,97.60
2017-11-22T18:22:54.663Z,97.60
2017-11-22T18:25:23.560Z,97.60
2017-11-22T18:27:52.384Z,97.50
2017-11-22T18:30:20.656Z,97.50
2017-11-22T18:32:49.250Z,97.40
2017-11-22T18:35:17.462Z,97.50
2017-11-22T18:37:45.674Z,97.60
2017-11-22T18:40:13.809Z,97.60
2017-11-22T18:42:41.931Z,97.60
2017-11-22T18:45:10.173Z,97.60
2017-11-22T18:47:39.075Z,97.50
2017-11-22T18:50:08.573Z,97.60
2017-11-22T18:52:38.309Z,97.70
2017-11-22T18:55:06.761Z,97.70
2017-11-22T18:57:34.867Z,97.70
2017-11-22T19:00:03.097Z,97.80
2017-11-22T19:02:31.467Z,97.90
2017-11-22T19:05:00.157Z,97.80
2017-11-22T19:07:29.021Z,97.70
2017-11-22T19:09:57.544Z,97.80
2017-11-22T19:12:25.609Z,97.80
2017-11-22T19:14:53.812Z,97.80
2017-11-22T19:17:22.652Z,97.90
2017-11-22T19:19:51.278Z,97.90
2017-11-22T19:22:20.834Z,98.30
2017-11-22T19:24:49.539Z,98.10
2017-11-22T19:27:17.660Z,98.10
2017-11-22T19:29:46.600Z,98.10
2017-11-22T19:32:14.714Z,98.10
2017-11-22T19:34:44.278Z,98.10
2017-11-22T19:37:12.473Z,98.20
2017-11-22T19:39:41.122Z,98.20
2017-11-22T19:42:09.212Z,98.20
2017-11-22T19:44:37.649Z,98.20
2017-11-22T19:47:06.978Z,98.50
2017-11-22T19:49:35.670Z,98.50
2017-11-22T19:52:04.576Z,98.50
2017-11-22T19:54:32.763Z,98.50
2017-11-22T19:57:00.853Z,98.50
2017-11-22T19:59:29.051Z,98.50
2017-11-22T20:01:57.868Z,98.60
2017-11-22T20:04:26.583Z,98.60
2017-11-22T20:07:07.056Z,98.70
2017-11-22T20:09:36.663Z,98.70
2017-11-22T20:12:05.168Z,98.70
2017-11-22T20:14:33.370Z,98.80
2017-11-22T20:17:02.192Z,98.70
2017-11-22T20:19:30.719Z,98.70
2017-11-22T20:21:59.447Z,98.70
2017-11-22T20:24:28.166Z,98.80
2017-11-22T20:26:56.240Z,98.90
2017-11-22T20:29:24.471Z,98.90
2017-11-22T20:31:53.300Z,98.80
2017-11-22T20:34:22.203Z,98.80
2017-11-22T20:36:50.949Z,98.90
2017-11-22T20:39:20.502Z,99.10
2017-11-22T20:41:49.295Z,99.10
2017-11-22T20:44:17.501Z,99.10
2017-11-22T20:46:46.340Z,98.90
2017-11-22T20:49:14.407Z,99.00
2017-11-22T20:51:43.129Z,99.00
2017-11-22T20:54:11.796Z,99.00
2017-11-22T20:56:40.687Z,99.00
2017-11-22T20:59:09.634Z,99.10
2017-11-22T21:01:38.469Z,99.10
2017-11-22T21:04:06.578Z,99.10
2017-11-22T21:06:35.332Z,99.20
2017-11-22T21:09:04.333Z,99.20
2017-11-22T21:11:33.062Z,99.00
2017-11-22T21:14:01.256Z,99.10
2017-11-22T21:16:30.096Z,99.20
2017-11-22T21:18:58.191Z,99.20
2017-11-22T21:21:26.920Z,99.20
2017-11-22T21:23:55.416Z,99.10
2017-11-22T21:26:24.172Z,99.10
2017-11-22T21:28:53.714Z,99.20
2017-11-22T21:31:21.806Z,99.20
2017-11-22T21:33:49.888Z,99.40
2017-11-22T21:36:18.760Z,99.10
2017-11-22T21:38:46.842Z,99.10
2017-11-22T21:41:15.417Z,99.00
2017-11-22T21:43:44.411Z,99.10
2017-11-22T21:46:12.466Z,99.10
2017-11-22T21:48:40.514Z,99.10
2017-11-22T21:51:10.157Z,99.20
2017-11-22T21:53:38.923Z,99.20
2017-11-22T21:56:08.258Z,99.20
2017-11-22T21:58:36.613Z,99.20
2017-11-22T22:01:05.225Z,99.30
2017-11-22T22:03:33.299Z,99.30
2017-11-22T22:06:01.509Z,99.40
2017-11-22T22:08:29.582Z,99.60
2017-11-22T22:10:58.016Z,99.70
2017-11-22T22:13:26.888Z,99.70
2017-11-22T22:15:56.324Z,99.80
2017-11-22T22:18:24.340Z,99.80
2017-11-22T22:20:52.404Z,99.90
2017-11-22T22:23:20.945Z,99.90
2017-11-22T22:25:49.688Z,99.90
2017-11-22T22:28:17.775Z,99.90
2017-11-22T22:30:47.033Z,99.90
2017-11-22T22:33:15.038Z,99.90
2017-11-22T22:35:43.852Z,99.90
2017-11-22T22:38:12.447Z,99.90
2017-11-22T22:40:41.069Z,99.90
2017-11-22T22:43:09.208Z,99.90
2017-11-22T22:45:37.773Z,99.90
2017-11-22T22:48:07.141Z,99.90
2017-11-22T22:50:35.317Z,99.90
2017-11-22T22:53:04.474Z,99.90
2017-11-22T22:55:32.984Z,99.90
2017-11-22T22:58:01.504Z,99.90
2017-11-22T23:00:31.081Z,99.90
2017-11-22T23:02:59.072Z,99.90
2017-11-22T23:05:27.217Z,99.90
2017-11-22T23:07:55.181Z,99.90
2017-11-22T23:10:23.161Z,99.90
2017-11-22T23:12:51.696Z,99.90
2017-11-22T23:15:21.429Z,99.90
2017-11-22T23:17:49.507Z,99.90
2017-11-22T23:20:17.737Z,99.90
2017-11-22T23:22:46.554Z,99.90
2017-11-22T23:25:15.060Z,99.90
2017-11-22T23:27:43.875Z,99.90
2017-11-22T23:30:12.540Z,99.90
2017-11-22T23:32:41.280Z,99.90
2017-11-22T23:35:10.201Z,99.90
2017-11-22T23:37:38.278Z,99.90
2017-11-22T23:40:06.985Z,99.90
2017-11-22T23:42:35.876Z,99.90
2017-11-22T23:45:04.560Z,99.90
2017-11-22T23:47:33.053Z,99.90
2017-11-22T23:50:02.066Z,99.90
2017-11-22T23:52:30.133Z,99.90
2017-11-22T23:54:58.699Z,99.90
2017-11-22T23:57:27.520Z,99.90
2017-11-22T23:59:56.150Z,99.90
